Time;durP1;ratioP1;P1;durP2;ratioP2;P2;SDS_P1;SDS_P2;PMS_P1;PMS_P2;Temp;Humidity;BMP_temperature;BMP_pressure;BME280_temperature;BME280_humidity;BME280_pressure;Samples;Min_cycle;Max_cycle;Signal;HPM_P1;HPM_P2
2023/04/13 00:01:31;;;;;;;2.53;1.43;;;;;;;4.83;100.00;99270.09;5225222;28;20446;-68
2023/04/13 00:04:34;;;;;;;4.85;1.88;;;;;;;4.82;100.00;99264.94;5223240;28;20033;-68
2023/04/13 00:07:05;;;;;;;3.77;1.70;;;;;;;4.81;100.00;99260.66;5222810;28;20466;-67
2023/04/13 00:09:36;;;;;;;6.73;1.73;;;;;;;4.80;100.00;99251.19;5223114;28;20088;-67
2023/04/13 00:12:09;;;;;;;6.60;1.90;;;;;;;4.80;100.00;99238.28;5223006;28;20482;-68
2023/04/13 00:14:42;;;;;;;7.25;2.28;;;;;;;4.87;100.00;99256.25;5223217;28;20441;-69
2023/04/13 00:17:14;;;;;;;4.93;2.08;;;;;;;4.90;100.00;99253.63;5223137;28;20042;-68
2023/04/13 00:19:49;;;;;;;9.03;2.70;;;;;;;4.86;100.00;99246.81;5223190;28;20030;-68
2023/04/13 00:22:20;;;;;;;4.28;1.65;;;;;;;4.97;100.00;99249.22;5223236;28;20481;-68
2023/04/13 00:24:54;;;;;;;3.93;1.57;;;;;;;5.05;100.00;99251.69;5223076;28;20224;-68
2023/04/13 00:27:26;;;;;;;4.68;1.60;;;;;;;5.05;100.00;99255.13;5221776;28;20379;-68
2023/04/13 00:29:57;;;;;;;6.03;1.88;;;;;;;5.13;100.00;99254.16;5222669;28;20112;-67
2023/04/13 00:32:28;;;;;;;6.33;2.10;;;;;;;5.13;100.00;99256.75;5222890;28;20088;-68
2023/04/13 00:35:00;;;;;;;5.57;1.57;;;;;;;5.10;100.00;99253.34;5221540;28;20034;-68
2023/04/13 00:37:32;;;;;;;5.03;1.70;;;;;;;5.17;100.00;99248.06;5222341;28;20073;-68
2023/04/13 00:40:06;;;;;;;7.30;2.43;;;;;;;5.15;100.00;99252.41;5222140;28;20220;-68
2023/04/13 00:42:38;;;;;;;12.18;1.98;;;;;;;5.11;100.00;99255.03;5222594;28;20061;-68
2023/04/13 00:45:12;;;;;;;5.00;1.73;;;;;;;5.11;100.00;99246.44;5222700;28;20096;-68
2023/04/13 00:47:45;;;;;;;7.03;1.80;;;;;;;5.08;100.00;99255.06;5222608;28;20382;-68
2023/04/13 00:50:19;;;;;;;5.78;2.00;;;;;;;5.11;100.00;99249.88;5222136;28;20061;-67
2023/04/13 00:52:51;;;;;;;4.65;2.70;;;;;;;5.13;100.00;99255.00;5222441;28;20120;-68
2023/04/13 00:55:23;;;;;;;3.77;1.60;;;;;;;5.11;100.00;99262.78;5222612;28;20414;-68
2023/04/13 00:57:58;;;;;;;4.45;1.73;;;;;;;5.10;100.00;99258.50;5222386;28;20025;-68
2023/04/13 01:00:29;;;;;;;5.03;1.88;;;;;;;5.17;100.00;99258.41;5222385;28;20045;-68
2023/04/13 01:03:01;;;;;;;8.23;3.07;;;;;;;5.14;100.00;99258.47;5222326;28;20049;-68
2023/04/13 01:05:39;;;;;;;6.93;3.37;;;;;;;5.16;100.00;99254.97;5222368;28;20022;-69
2023/04/13 01:08:19;;;;;;;7.47;2.03;;;;;;;5.14;100.00;99258.47;5221919;28;20037;-68
2023/04/13 01:11:13;;;;;;;7.30;1.98;;;;;;;5.16;100.00;99249.78;5222289;28;20095;-68
2023/04/13 01:13:54;;;;;;;12.43;2.00;;;;;;;5.20;100.00;99259.22;5222231;28;20354;-68
2023/04/13 01:16:47;;;;;;;3.55;1.85;;;;;;;5.18;100.00;99249.78;5222163;28;20026;-68
2023/04/13 01:19:29;;;;;;;;;;;;;;;5.15;100.00;99250.66;5222498;28;20116;-68
2023/04/13 01:22:03;;;;;;;7.97;2.70;;;;;;;5.19;100.00;99251.50;5221950;28;19913;-68
2023/04/13 01:24:47;;;;;;;7.18;2.15;;;;;;;5.22;100.00;99254.03;5222006;28;20462;-68
2023/04/13 01:27:46;;;;;;;7.32;1.85;;;;;;;5.27;100.00;99244.47;5220431;28;20045;-68
2023/04/13 01:30:22;;;;;;;6.43;2.05;;;;;;;5.22;100.00;99257.47;5221326;28;20070;-67
2023/04/13 01:32:54;;;;;;;4.45;1.52;;;;;;;5.25;100.00;99260.00;5221728;28;20545;-67
2023/04/13 01:35:26;;;;;;;11.93;3.10;;;;;;;5.28;100.00;99262.53;5221726;28;20041;-67
2023/04/13 01:37:58;;;;;;;7.33;3.33;;;;;;;5.30;100.00;99263.34;5221376;28;20040;-68
2023/04/13 01:40:30;;;;;;;15.35;4.05;;;;;;;5.30;100.00;99270.25;5221580;28;20022;-68
2023/04/13 01:43:02;;;;;;;13.50;2.47;;;;;;;5.30;100.00;99275.44;5221528;28;20092;-68
2023/04/13 01:45:46;;;;;;;9.60;2.13;;;;;;;5.31;100.00;99266.78;5221324;28;20509;-68
2023/04/13 01:48:35;;;;;;;12.20;2.60;;;;;;;5.30;100.00;99283.19;5221537;28;20058;-68
2023/04/13 01:51:09;;;;;;;8.45;2.10;;;;;;;5.31;100.00;99284.88;5221090;28;20211;-68
2023/04/13 01:53:45;;;;;;;9.40;2.17;;;;;;;5.27;100.00;99283.22;5221074;28;20033;-69
2023/04/13 01:56:18;;;;;;;10.85;2.80;;;;;;;5.26;100.00;99292.72;5221444;28;20466;-68
2023/04/13 01:58:56;;;;;;;11.63;2.78;;;;;;;5.24;100.00;99294.44;5221378;28;20092;-69
2023/04/13 02:01:28;;;;;;;11.02;3.55;;;;;;;5.25;100.00;99293.59;5221321;28;20025;-70
2023/04/13 02:04:01;;;;;;;5.93;2.43;;;;;;;5.28;100.00;99305.59;5221279;28;20030;-69
2023/04/13 02:06:32;;;;;;;7.80;2.28;;;;;;;5.30;100.00;99321.94;5220790;28;20032;-69
2023/04/13 02:09:06;;;;;;;9.30;2.77;;;;;;;5.27;100.00;99329.72;5221156;28;20116;-68
2023/04/13 02:11:38;;;;;;;9.15;2.85;;;;;;;5.27;100.00;99327.16;5221062;28;20073;-69
2023/04/13 02:14:09;;;;;;;7.87;2.50;;;;;;;5.28;100.00;99334.00;5221100;28;20069;-70
2023/04/13 02:16:40;;;;;;;6.27;2.17;;;;;;;5.23;100.00;99346.13;5220994;28;20061;-69
2023/04/13 02:19:12;;;;;;;6.77;2.30;;;;;;;5.26;100.00;99330.59;5221093;28;20049;-69
2023/04/13 02:21:43;;;;;;;7.30;2.17;;;;;;;5.22;100.00;99334.97;5220932;28;20033;-69
2023/04/13 02:24:15;;;;;;;7.17;2.00;;;;;;;5.21;100.00;99332.41;5220948;28;20118;-69
2023/04/13 02:26:48;;;;;;;8.88;2.80;;;;;;;5.21;100.00;99342.72;5220876;28;20033;-69
2023/04/13 02:29:19;;;;;;;10.98;3.03;;;;;;;5.24;100.00;99350.44;5219576;28;20390;-69
2023/04/13 02:31:50;;;;;;;9.83;4.03;;;;;;;5.21;100.00;99342.72;5220829;28;20050;-69
2023/04/13 02:34:22;;;;;;;8.80;3.17;;;;;;;5.28;100.00;99346.91;5220896;28;20030;-69
2023/04/13 02:36:53;;;;;;;10.43;3.37;;;;;;;5.29;100.00;99371.91;5218957;28;20026;-69
2023/04/13 02:39:25;;;;;;;6.20;2.90;;;;;;;5.28;100.00;99354.69;5220819;28;20033;-69
2023/04/13 02:41:56;;;;;;;7.63;2.77;;;;;;;5.29;100.00;99365.00;5219328;28;20034;-69
2023/04/13 02:44:29;;;;;;;7.70;2.80;;;;;;;5.25;100.00;99375.41;5220783;28;20091;-69
2023/04/13 02:47:00;;;;;;;9.32;2.80;;;;;;;5.26;100.00;99356.44;5220605;28;20527;-68
2023/04/13 02:49:31;;;;;;;10.27;3.10;;;;;;;5.30;100.00;99379.63;5220779;28;20113;-68
2023/04/13 02:52:03;;;;;;;8.37;2.70;;;;;;;5.33;100.00;99385.63;5220715;28;20501;-69
2023/04/13 02:54:35;;;;;;;7.07;2.53;;;;;;;5.27;100.00;99394.31;5220755;28;20041;-69
2023/04/13 02:57:06;;;;;;;8.37;2.67;;;;;;;5.26;100.00;99390.03;5220819;28;20474;-69
2023/04/13 02:59:40;;;;;;;7.67;2.97;;;;;;;5.22;100.00;99384.06;5220366;28;20089;-69
2023/04/13 03:02:12;;;;;;;8.18;3.33;;;;;;;5.21;100.00;99390.09;5220457;28;20034;-69
2023/04/13 03:04:44;;;;;;;13.13;3.10;;;;;;;5.21;100.00;99394.41;5223998;28;20112;-69
2023/04/13 03:07:16;;;;;;;9.97;3.70;;;;;;;5.20;100.00;99419.41;5224275;28;20025;-70
2023/04/13 03:09:47;;;;;;;11.97;3.67;;;;;;;5.13;100.00;99417.75;5224581;28;20077;-70
2023/04/13 03:12:19;;;;;;;6.43;2.90;;;;;;;4.90;100.00;99426.63;5224755;28;20030;-69
2023/04/13 03:14:50;;;;;;;5.27;1.77;;;;;;;4.76;100.00;99436.25;5224558;28;20033;-69
2023/04/13 03:17:21;;;;;;;10.20;2.20;;;;;;;4.60;100.00;99432.13;5224547;28;20029;-69
2023/04/13 03:19:53;;;;;;;6.93;2.37;;;;;;;4.68;100.00;99445.81;5223275;28;20037;-68
2023/04/13 03:22:24;;;;;;;5.43;2.30;;;;;;;4.64;100.00;99431.25;5224413;28;20034;-69
2023/04/13 03:24:56;;;;;;;9.70;3.27;;;;;;;4.63;100.00;99435.53;5224457;28;20427;-69
2023/04/13 03:27:27;;;;;;;10.57;3.43;;;;;;;4.65;100.00;99446.69;5224276;28;20037;-70
2023/04/13 03:29:59;;;;;;;6.77;3.47;;;;;;;4.67;100.00;99450.13;5224372;28;20045;-69
2023/04/13 03:32:30;;;;;;;8.70;4.40;;;;;;;4.74;100.00;99453.50;5224235;28;20049;-69
2023/04/13 03:35:02;;;;;;;9.95;5.45;;;;;;;4.77;100.00;99458.63;5224317;28;20448;-68
2023/04/13 03:37:39;;;;;;;11.83;4.00;;;;;;;4.78;100.00;99462.06;5223743;28;20064;-68
2023/04/13 03:40:10;;;;;;;20.23;5.00;;;;;;;4.81;100.00;99467.19;5223995;28;20042;-68
2023/04/13 03:42:42;;;;;;;9.67;4.57;;;;;;;4.84;100.00;99474.91;5222509;28;20474;-68
2023/04/13 03:45:13;;;;;;;10.90;5.13;;;;;;;4.87;100.00;99473.13;5223914;28;20112;-68
2023/04/13 03:47:45;;;;;;;15.07;5.33;;;;;;;4.86;100.00;99478.31;5223855;28;20030;-68
2023/04/13 03:50:16;;;;;;;11.83;5.60;;;;;;;4.79;100.00;99474.09;5223839;28;20065;-68
2023/04/13 03:52:47;;;;;;;9.40;6.10;;;;;;;4.80;100.00;99480.94;5243154;28;20492;-68
2023/04/13 03:55:19;;;;;;;12.23;6.43;;;;;;;4.80;100.00;99487.00;5244326;28;20037;-68
2023/04/13 03:57:50;;;;;;;11.43;6.60;;;;;;;4.76;100.00;99490.47;5244254;28;20063;-68
2023/04/13 04:00:21;;;;;;;13.37;7.60;;;;;;;4.80;100.00;99497.31;5244235;28;20069;-68
2023/04/13 04:02:53;;;;;;;14.67;7.20;;;;;;;4.80;100.00;99499.91;5244284;28;20025;-68
2023/04/13 04:05:24;;;;;;;12.97;7.33;;;;;;;4.79;100.00;99500.75;5244156;28;20041;-68
2023/04/13 04:07:55;;;;;;;13.80;5.90;;;;;;;4.78;100.00;99498.19;5244004;28;20029;-68
2023/04/13 04:10:27;;;;;;;11.93;6.80;;;;;;;4.75;100.00;99499.94;5244062;28;20030;-68
2023/04/13 04:12:59;;;;;;;12.67;7.93;;;;;;;4.74;100.00;99510.28;5243937;28;20159;-68
2023/04/13 04:15:30;;;;;;;13.73;6.53;;;;;;;4.78;100.00;99521.44;5242938;28;20032;-68
2023/04/13 04:18:01;;;;;;;14.30;7.40;;;;;;;4.75;100.00;99518.00;5243846;28;20095;-68
2023/04/13 04:20:33;;;;;;;15.97;7.20;;;;;;;4.72;100.00;99517.19;5243492;28;20029;-68
2023/04/13 04:23:04;;;;;;;11.17;6.40;;;;;;;4.67;100.00;99530.13;5243539;28;20034;-67
2023/04/13 04:25:37;;;;;;;12.67;7.23;;;;;;;4.69;100.00;99537.88;5242533;28;20040;-67
2023/04/13 04:28:08;;;;;;;10.30;6.47;;;;;;;4.66;100.00;99527.56;5243664;28;20392;-67
2023/04/13 04:30:39;;;;;;;16.70;6.80;;;;;;;4.65;100.00;99536.16;5243109;28;20120;-67
2023/04/13 04:33:13;;;;;;;14.25;7.25;;;;;;;4.60;100.00;99545.69;5243268;28;20103;-67
2023/04/13 04:35:49;;;;;;;12.85;6.95;;;;;;;4.65;100.00;99555.09;5243526;28;20579;-67
2023/04/13 04:38:21;;;;;;;14.52;6.65;;;;;;;4.59;100.00;99547.41;5243048;28;20096;-67
2023/04/13 04:40:56;;;;;;;13.93;7.00;;;;;;;4.52;100.00;99550.91;5243362;28;20109;-67
2023/04/13 04:43:29;;;;;;;14.70;7.45;;;;;;;4.54;100.00;99554.31;5243251;28;20155;-67
2023/04/13 04:46:03;;;;;;;12.98;6.97;;;;;;;4.52;100.00;99568.97;5243320;28;20123;-67
2023/04/13 04:48:36;;;;;;;12.75;7.28;;;;;;;4.44;100.00;99563.00;5242965;28;20091;-67
2023/04/13 04:51:07;;;;;;;16.30;8.05;;;;;;;4.43;100.00;99580.22;5243046;28;20127;-67
2023/04/13 04:53:39;;;;;;;13.87;7.97;;;;;;;4.41;100.00;99584.53;5242885;28;20061;-67
2023/04/13 04:56:10;;;;;;;14.97;7.43;;;;;;;4.41;100.00;99576.78;5242490;28;20033;-67
2023/04/13 04:58:41;;;;;;;13.10;7.47;;;;;;;4.36;100.00;99584.56;5242708;28;20444;-67
2023/04/13 05:01:13;;;;;;;12.97;7.87;;;;;;;4.38;100.00;99590.56;5242739;28;20040;-67
2023/04/13 05:03:44;;;;;;;17.47;8.83;;;;;;;4.40;100.00;99582.81;5242962;28;20083;-67
2023/04/13 05:06:16;;;;;;;16.50;9.70;;;;;;;4.42;100.00;99582.81;5242230;28;20037;-67
2023/04/13 05:08:47;;;;;;;14.47;9.27;;;;;;;4.47;100.00;99591.38;5242683;28;20374;-66
2023/04/13 05:11:19;;;;;;;13.93;9.37;;;;;;;4.47;100.00;99591.38;5242574;28;20030;-66
2023/04/13 05:13:54;;;;;;;15.15;9.85;;;;;;;4.49;100.00;99598.25;5242817;28;20444;-66
2023/04/13 05:16:29;;;;;;;16.50;9.45;;;;;;;4.47;100.00;99588.78;5242803;28;20467;-66
2023/04/13 05:19:00;;;;;;;16.27;10.20;;;;;;;4.55;100.00;99602.50;5242801;28;20405;-67
2023/04/13 05:21:32;;;;;;;13.30;9.40;;;;;;;4.52;100.00;99581.88;5242763;28;20033;-67
2023/04/13 05:24:04;;;;;;;15.13;8.87;;;;;;;4.52;100.00;99587.03;5242664;28;20083;-66
2023/04/13 05:26:35;;;;;;;16.57;8.70;;;;;;;4.54;100.00;99614.56;5242485;28;20437;-67
2023/04/13 05:29:07;;;;;;;14.97;8.47;;;;;;;4.55;100.00;99600.75;5242598;28;20036;-66
2023/04/13 05:31:38;;;;;;;12.83;7.37;;;;;;;4.63;100.00;99608.47;5242492;28;20055;-66
2023/04/13 05:34:10;;;;;;;11.73;6.83;;;;;;;4.70;100.00;99604.97;5242360;28;20227;-67
2023/04/13 05:36:41;;;;;;;9.30;6.33;;;;;;;4.77;100.00;99615.25;5241984;28;20036;-68
2023/04/13 05:39:13;;;;;;;12.60;5.90;;;;;;;4.82;100.00;99621.25;5242291;28;20029;-67
2023/04/13 05:41:44;;;;;;;11.23;5.17;;;;;;;4.83;100.00;99622.94;5242242;28;20037;-65
2023/04/13 05:44:16;;;;;;;11.80;5.13;;;;;;;4.88;100.00;99619.47;5240991;28;20220;-65
2023/04/13 05:46:51;;;;;;;9.03;5.47;;;;;;;4.92;100.00;99633.19;5242174;28;20030;-65
2023/04/13 05:49:22;;;;;;;9.82;4.45;;;;;;;4.97;100.00;99646.06;5242062;28;20107;-65
2023/04/13 05:51:53;;;;;;;9.10;4.13;;;;;;;4.99;100.00;99634.00;5241751;28;20175;-66
2023/04/13 05:54:25;;;;;;;9.77;5.00;;;;;;;5.05;100.00;99639.13;5241791;28;20029;-66
2023/04/13 05:56:56;;;;;;;7.93;3.23;;;;;;;5.09;100.00;99639.06;5224260;28;20030;-66
2023/04/13 05:59:27;;;;;;;5.07;2.90;;;;;;;5.12;100.00;99653.69;5241910;28;20388;-67
2023/04/13 06:02:01;;;;;;;7.73;3.20;;;;;;;5.19;100.00;99654.50;5241503;28;20033;-66
2023/04/13 06:04:33;;;;;;;6.70;3.20;;;;;;;5.26;100.00;99661.31;5240573;28;20555;-66
2023/04/13 06:07:05;;;;;;;6.20;2.60;;;;;;;5.28;100.00;99669.91;5241413;28;20067;-67
2023/04/13 06:09:37;;;;;;;7.57;2.80;;;;;;;5.29;100.00;99672.47;5241964;28;20389;-66
2023/04/13 06:12:08;;;;;;;6.63;2.90;;;;;;;5.32;100.00;99686.25;5241809;28;20034;-67
2023/04/13 06:14:40;;;;;;;5.93;2.97;;;;;;;5.29;100.00;99682.81;5241768;28;20384;-66
2023/04/13 06:17:12;;;;;;;8.13;3.05;;;;;;;5.35;100.00;99692.25;5242029;28;20021;-66
2023/04/13 06:19:43;;;;;;;10.20;4.17;;;;;;;5.40;100.00;99687.03;5240445;28;20041;-67
2023/04/13 06:22:15;;;;;;;6.93;3.53;;;;;;;5.47;100.00;99692.16;5241395;28;20072;-67
2023/04/13 06:24:50;;;;;;;7.00;3.57;;;;;;;5.53;100.00;99701.56;5240359;28;20452;-67
2023/04/13 06:27:22;;;;;;;8.23;3.60;;;;;;;5.61;100.00;99691.13;5241598;28;20040;-67
2023/04/13 06:29:55;;;;;;;8.60;4.20;;;;;;;5.63;100.00;99697.16;5241633;28;20033;-67
2023/04/13 06:32:27;;;;;;;8.05;3.20;;;;;;;5.68;100.00;99705.69;5241185;28;20058;-68
2023/04/13 06:34:58;;;;;;;6.63;3.03;;;;;;;5.68;100.00;99704.84;5241520;28;20036;-67
2023/04/13 06:37:29;;;;;;;10.27;3.23;;;;;;;5.71;100.00;99710.84;5240732;28;20033;-67
2023/04/13 06:40:14;;;;;;;7.70;2.93;;;;;;;5.79;100.00;99714.22;5241491;28;20033;-67
2023/04/13 06:42:46;;;;;;;10.32;3.58;;;;;;;5.88;100.00;99728.78;5241457;28;20457;-67
2023/04/13 06:45:18;;;;;;;8.00;3.20;;;;;;;5.96;100.00;99726.13;5241429;28;20040;-67
2023/04/13 06:47:52;;;;;;;7.78;2.78;;;;;;;6.05;100.00;99731.22;5241125;28;20082;-67
2023/04/13 06:50:24;;;;;;;7.35;3.63;;;;;;;6.02;100.00;99736.41;5241406;28;20075;-67
2023/04/13 06:52:55;;;;;;;9.60;3.33;;;;;;;6.03;100.00;99744.16;5241354;28;20060;-67
2023/04/13 06:55:27;;;;;;;10.83;3.30;;;;;;;6.09;100.00;99747.56;5241424;28;20040;-68
2023/04/13 06:57:58;;;;;;;10.77;3.40;;;;;;;6.14;100.00;99738.88;5241293;28;20377;-67
2023/04/13 07:00:30;;;;;;;8.60;3.17;;;;;;;6.20;100.00;99751.75;5241315;28;20030;-68
2023/04/13 07:03:02;;;;;;;9.55;3.78;;;;;;;6.25;100.00;99756.00;5241192;28;20350;-67
2023/04/13 07:05:33;;;;;;;10.17;3.33;;;;;;;6.24;100.00;99760.31;5241361;28;20035;-68
2023/04/13 07:08:05;;;;;;;10.07;3.80;;;;;;;6.29;100.00;99775.81;5240729;28;20279;-67
2023/04/13 07:10:38;;;;;;;9.57;3.30;;;;;;;6.29;100.00;99763.72;5241196;28;20385;-68
2023/04/13 07:13:09;;;;;;;8.68;3.47;;;;;;;6.32;100.00;99779.22;5239942;28;20060;-67
2023/04/13 07:15:41;;;;;;;7.83;3.57;;;;;;;6.32;100.00;99771.44;5241253;28;20133;-67
2023/04/13 07:18:12;;;;;;;8.53;4.33;;;;;;;6.34;100.00;99777.47;5241070;28;20026;-67
2023/04/13 07:20:44;;;;;;;10.80;3.53;;;;;;;6.36;100.00;99787.81;5241160;28;20087;-67
2023/04/13 07:23:15;;;;;;;13.23;3.57;;;;;;;6.33;100.00;99800.78;5240935;28;20112;-67
2023/04/13 07:25:47;;;;;;;8.67;3.90;;;;;;;6.31;100.00;99802.53;5240967;28;20040;-67
2023/04/13 07:28:18;;;;;;;6.10;3.60;;;;;;;6.34;100.00;99810.25;5241245;28;20034;-67
2023/04/13 07:30:50;;;;;;;10.00;3.93;;;;;;;6.38;100.00;99806.78;5239491;28;20029;-67
2023/04/13 07:33:21;;;;;;;14.53;3.90;;;;;;;6.42;100.00;99805.84;5239641;28;20044;-67
2023/04/13 07:35:54;;;;;;;12.00;5.00;;;;;;;6.45;100.00;99812.72;5240869;28;20057;-67
2023/04/13 07:38:25;;;;;;;8.65;3.67;;;;;;;6.49;100.00;99828.22;5240487;28;20033;-67
2023/04/13 07:40:57;;;;;;;11.70;4.70;;;;;;;6.47;100.00;99816.16;5240622;28;20037;-66
2023/04/13 07:43:28;;;;;;;12.27;4.33;;;;;;;6.54;100.00;99829.00;5240827;28;20112;-67
2023/04/13 07:46:00;;;;;;;11.03;3.83;;;;;;;6.60;100.00;99833.28;5223208;28;20048;-66
2023/04/13 07:48:31;;;;;;;11.47;3.77;;;;;;;6.67;100.00;99828.88;5239416;28;20079;-67
2023/04/13 07:51:02;;;;;;;11.10;4.67;;;;;;;6.77;100.00;99838.22;5243197;28;20033;-67
2023/04/13 07:53:34;;;;;;;10.47;4.07;;;;;;;6.81;100.00;99842.50;5244710;28;20045;-68
2023/04/13 07:56:06;;;;;;;10.53;3.87;;;;;;;6.89;100.00;99844.97;5244401;28;20030;-67
2023/04/13 07:58:37;;;;;;;8.87;3.90;;;;;;;7.00;100.00;99848.28;5244105;28;20033;-67
2023/04/13 08:01:08;;;;;;;12.67;4.30;;;;;;;7.28;100.00;99851.38;5244359;28;20029;-67
2023/04/13 08:03:41;;;;;;;13.23;4.03;;;;;;;7.42;100.00;99853.78;5244132;28;20021;-68
2023/04/13 08:06:12;;;;;;;13.55;4.32;;;;;;;7.58;100.00;99859.59;5243759;28;20044;-67
2023/04/13 08:08:44;;;;;;;12.97;4.77;;;;;;;7.77;100.00;99861.88;5243854;28;20037;-67
2023/04/13 08:11:15;;;;;;;9.93;3.73;;;;;;;7.91;100.00;99872.91;5242904;28;20087;-67
2023/04/13 08:13:47;;;;;;;13.03;4.70;;;;;;;8.02;98.18;99883.94;5242948;28;20213;-67
2023/04/13 08:16:18;;;;;;;17.83;4.97;;;;;;;7.88;96.70;99885.91;5242720;28;20507;-66
2023/04/13 08:18:50;;;;;;;18.93;5.03;;;;;;;7.88;96.08;99885.06;5243997;28;20033;-66
2023/04/13 08:21:22;;;;;;;16.00;5.60;;;;;;;7.96;96.04;99893.59;5243822;28;20032;-67
2023/04/13 08:23:54;;;;;;;13.53;5.10;;;;;;;7.94;94.37;99885.81;5243587;28;20478;-66
2023/04/13 08:26:25;;;;;;;17.10;5.33;;;;;;;7.99;93.62;99902.16;5242531;28;20284;-67
2023/04/13 08:28:56;;;;;;;14.03;5.47;;;;;;;8.05;93.62;99898.63;5243668;28;20022;-67
2023/04/13 08:31:28;;;;;;;12.43;4.63;;;;;;;8.07;92.28;99907.25;5243466;28;20143;-67
2023/04/13 08:33:59;;;;;;;14.63;4.10;;;;;;;8.17;92.13;99907.94;5243268;28;20044;-66
2023/04/13 08:36:31;;;;;;;15.53;4.83;;;;;;;8.19;92.32;99914.84;5243253;28;20402;-66
2023/04/13 08:39:04;;;;;;;15.38;5.03;;;;;;;8.35;91.33;99918.00;5243429;28;20044;-66
2023/04/13 08:41:39;;;;;;;;;;;;;;;8.55;89.94;99927.22;5243974;28;20029;-67
2023/04/13 08:44:12;;;;;;;13.35;4.55;;;;;;;8.58;89.50;99930.63;5243362;28;20319;-66
2023/04/13 08:46:45;;;;;;;19.63;4.47;;;;;;;8.45;87.56;99931.69;5243378;28;20017;-67
2023/04/13 08:49:17;;;;;;;20.40;6.25;;;;;;;8.33;87.12;99948.34;5243466;28;20032;-66
2023/04/13 08:51:49;;;;;;;9.60;4.20;;;;;;;8.37;87.98;99936.16;5242212;28;20041;-66
2023/04/13 08:54:23;;;;;;;15.40;4.13;;;;;;;8.39;85.90;99944.78;5225423;28;20295;-66
2023/04/13 08:56:56;;;;;;;12.32;3.85;;;;;;;8.50;83.82;99955.88;5243504;28;20076;-66
2023/04/13 08:59:28;;;;;;;17.90;5.30;;;;;;;8.67;82.83;99965.09;5243208;28;20449;-67
2023/04/13 09:02:05;;;;;;;15.10;4.70;;;;;;;8.98;83.74;99959.31;5242613;28;20129;-67
2023/04/13 09:04:41;;;;;;;17.83;4.95;;;;;;;9.13;80.75;99974.63;5241729;28;20044;-67
2023/04/13 09:07:21;;;;;;;17.00;4.60;;;;;;;9.31;81.63;99973.41;5242581;28;20037;-67
2023/04/13 09:09:58;;;;;;;18.75;5.53;;;;;;;9.51;82.14;99978.16;5242959;28;20029;-66
2023/04/13 09:12:33;;;;;;;16.63;4.90;;;;;;;9.57;78.26;99977.19;5242591;28;20103;-67
2023/04/13 09:15:05;;;;;;;15.55;4.57;;;;;;;9.77;76.92;99989.75;5242843;28;20117;-67
2023/04/13 09:17:37;;;;;;;12.82;3.40;;;;;;;9.70;76.90;99983.00;5242859;28;20462;-68
2023/04/13 09:20:13;;;;;;;13.47;4.87;;;;;;;9.96;77.99;99990.22;5242846;28;20032;-67
2023/04/13 09:22:45;;;;;;;11.60;3.47;;;;;;;9.78;77.43;99997.53;5242725;28;20088;-66
2023/04/13 09:25:24;;;;;;;12.13;3.47;;;;;;;9.61;75.70;100002.25;5242770;28;20057;-66
2023/04/13 09:27:56;;;;;;;13.32;3.42;;;;;;;9.35;76.50;99995.84;5241233;28;20021;-67
2023/04/13 09:30:27;;;;;;;11.47;3.23;;;;;;;9.07;76.66;100004.19;5242582;28;20477;-68
2023/04/13 09:33:03;;;;;;;13.93;4.00;;;;;;;9.08;77.24;100020.66;5242553;28;20572;-67
2023/04/13 09:35:36;;;;;;;11.70;3.65;;;;;;;9.25;79.41;100012.53;5241157;28;20551;-66
2023/04/13 09:38:07;;;;;;;15.73;4.47;;;;;;;9.21;78.91;100019.53;5242051;28;20108;-66
2023/04/13 09:40:49;;;;;;;13.47;3.73;;;;;;;8.93;77.76;100030.47;5242366;28;20052;-67
2023/04/13 09:43:20;;;;;;;15.43;5.15;;;;;;;8.81;77.19;100025.47;5241984;28;20168;-67
2023/04/13 09:45:52;;;;;;;13.10;4.57;;;;;;;8.91;77.29;100041.75;5242667;28;20065;-66
2023/04/13 09:48:23;;;;;;;13.60;4.23;;;;;;;8.80;76.89;100039.34;5242587;28;20466;-67
2023/04/13 09:51:03;;;;;;;16.97;4.00;;;;;;;8.89;77.26;100052.19;5242339;28;20469;-67
2023/04/13 09:53:42;;;;;;;15.00;4.07;;;;;;;9.02;76.50;100065.81;5242221;28;20057;-67
2023/04/13 09:56:14;;;;;;;15.18;4.18;;;;;;;8.87;76.69;100063.47;5240897;28;20112;-67
2023/04/13 09:58:46;;;;;;;;;;;;;;;8.96;79.32;100060.72;5242486;28;20046;-66
2023/04/13 10:01:19;;;;;;;15.02;4.47;;;;;;;8.88;80.40;100071.25;5242082;28;19924;-66
2023/04/13 10:03:51;;;;;;;14.07;4.05;;;;;;;8.91;79.17;100084.19;5241887;28;20075;-66
2023/04/13 10:06:23;;;;;;;10.13;4.10;;;;;;;9.01;80.60;100071.91;5242109;28;20469;-66
2023/04/13 10:08:54;;;;;;;10.83;5.33;;;;;;;9.29;77.95;100098.28;5240328;28;20037;-66
2023/04/13 10:11:26;;;;;;;15.10;4.67;;;;;;;9.36;77.51;100082.56;5241760;28;20025;-66
2023/04/13 10:14:01;;;;;;;13.43;4.97;;;;;;;9.43;78.34;100086.75;5241151;28;20038;-66
2023/04/13 10:16:32;;;;;;;11.90;4.80;;;;;;;9.49;76.08;100103.09;5242028;28;20064;-67
2023/04/13 10:19:09;;;;;;;17.23;4.90;;;;;;;9.71;75.82;100092.28;5241669;28;20029;-67
2023/04/13 10:21:46;;;;;;;19.80;6.05;;;;;;;9.67;75.55;100107.06;5240598;28;20037;-67
2023/04/13 10:24:18;;;;;;;12.02;4.82;;;;;;;9.46;73.67;100099.69;5241814;28;20052;-67
2023/04/13 10:26:53;;;;;;;13.73;4.53;;;;;;;9.80;77.67;100102.47;5241728;28;20497;-66
2023/04/13 10:29:29;;;;;;;14.27;4.78;;;;;;;9.80;73.05;100107.69;5241688;28;20037;-65
2023/04/13 10:32:03;;;;;;;13.77;5.22;;;;;;;9.59;72.86;100111.56;5241477;28;20053;-66
2023/04/13 10:34:37;;;;;;;16.95;5.43;;;;;;;9.68;74.81;100113.16;5241508;28;20112;-66
2023/04/13 10:37:20;;;;;;;16.27;5.00;;;;;;;9.77;72.93;100118.19;5240843;28;20044;-67
2023/04/13 10:40:05;;;;;;;17.20;5.65;;;;;;;9.95;70.40;100126.47;5241445;28;20112;-66
2023/04/13 10:42:46;;;;;;;11.25;3.88;;;;;;;10.20;70.46;100143.28;5240103;28;20171;-67
2023/04/13 10:45:23;;;;;;;14.50;5.22;;;;;;;10.34;69.22;100132.63;5241626;28;20465;-67
2023/04/13 10:47:55;;;;;;;13.88;5.25;;;;;;;10.13;68.24;100136.50;5240374;28;20028;-67
2023/04/13 10:50:26;;;;;;;17.60;5.15;;;;;;;10.05;69.45;100133.22;5241973;28;20076;-67
2023/04/13 10:53:03;;;;;;;14.97;5.07;;;;;;;10.26;70.57;100139.72;5242000;28;20116;-66
2023/04/13 10:55:35;;;;;;;14.55;5.00;;;;;;;10.09;71.35;100140.06;5242204;28;20032;-66
2023/04/13 10:58:18;;;;;;;13.70;4.57;;;;;;;10.15;69.92;100157.31;5242391;28;20030;-66
2023/04/13 11:00:50;;;;;;;15.57;4.25;;;;;;;9.59;68.44;100150.59;5245445;28;20037;-67
2023/04/13 11:03:25;;;;;;;11.10;4.88;;;;;;;9.85;70.81;100159.66;5231321;28;20030;-67
2023/04/13 11:05:59;;;;;;;14.93;5.68;;;;;;;9.81;70.46;100161.47;5249513;28;20026;-66
2023/04/13 11:08:31;;;;;;;13.57;4.60;;;;;;;9.75;68.97;100169.38;5248062;28;20030;-67
2023/04/13 11:11:03;;;;;;;12.90;4.22;;;;;;;9.76;69.66;100167.66;5251411;28;20038;-66
2023/04/13 11:13:43;;;;;;;11.40;3.75;;;;;;;9.85;69.97;100173.53;5252188;28;20044;-66
2023/04/13 11:16:15;;;;;;;11.73;4.18;;;;;;;9.86;69.88;100169.19;5252191;28;20034;-68
2023/04/13 11:18:46;;;;;;;13.53;3.03;;;;;;;9.86;71.60;100179.59;5252234;28;20068;-65
2023/04/13 11:21:17;;;;;;;10.17;3.67;;;;;;;9.67;69.35;100181.69;5252029;28;20116;-66
2023/04/13 11:23:52;;;;;;;10.80;4.20;;;;;;;9.67;71.21;100182.53;5252359;28;20041;-66
2023/04/13 11:26:34;;;;;;;12.30;3.80;;;;;;;9.95;73.43;100178.53;5257530;28;20034;-67
2023/04/13 11:29:15;;;;;;;10.13;2.85;;;;;;;10.34;70.24;100182.13;5257460;28;20381;-68
2023/04/13 11:31:47;;;;;;;10.60;3.30;;;;;;;12.10;64.22;100195.19;5255318;28;20079;-66
2023/04/13 11:34:24;;;;;;;15.00;3.37;;;;;;;12.56;58.68;100175.53;5250766;28;20025;-66
2023/04/13 11:37:00;;;;;;;10.70;2.90;;;;;;;12.68;57.05;100182.13;5246181;28;20363;-67
2023/04/13 11:39:35;;;;;;;12.60;3.47;;;;;;;11.53;59.97;100191.47;5245250;28;20155;-67
2023/04/13 11:42:06;;;;;;;11.30;3.70;;;;;;;11.55;61.57;100184.47;5244899;28;20426;-65
2023/04/13 11:44:38;;;;;;;14.07;4.33;;;;;;;12.56;58.27;100171.16;5244410;28;20044;-67
2023/04/13 11:47:14;;;;;;;9.90;2.67;;;;;;;14.28;52.05;100174.06;5244859;28;20025;-67
2023/04/13 11:49:46;;;;;;;10.35;3.15;;;;;;;15.99;46.83;100185.44;5244717;28;20527;-67
2023/04/13 11:52:18;;;;;;;8.63;3.60;;;;;;;15.72;46.13;100176.13;5245655;28;20037;-67
2023/04/13 11:54:50;;;;;;;11.13;3.73;;;;;;;16.01;44.33;100178.34;5245425;28;20025;-67
2023/04/13 11:57:23;;;;;;;9.98;3.83;;;;;;;16.48;44.69;100178.84;5245295;28;20033;-67